createdAt,value
2023-03-11T00:00:26.631Z,7.53
2023-03-11T00:03:13.962Z,8.02
2023-03-11T00:06:01.847Z,8.38
2023-03-11T00:08:46.795Z,9.05
2023-03-11T00:11:32.532Z,9.43
2023-03-11T00:14:17.567Z,7.72
2023-03-11T00:17:02.906Z,8.05
2023-03-11T00:19:48.002Z,7.50
2023-03-11T00:22:33.557Z,7.50
2023-03-11T00:25:19.961Z,8.25
2023-03-11T00:28:07.414Z,8.50
2023-03-11T00:30:52.537Z,9.13
2023-03-11T00:33:38.749Z,8.45
2023-03-11T00:36:31.462Z,7.50
2023-03-11T00:39:25.354Z,7.76
2023-03-11T00:42:10.555Z,8.55
2023-03-11T00:44:55.907Z,7.47
2023-03-11T00:47:43.505Z,6.97
2023-03-11T00:50:31.819Z,7.30
2023-03-11T00:53:16.888Z,8.07
2023-03-11T00:56:10.512Z,7.38
2023-03-11T00:58:55.797Z,8.55
2023-03-11T01:01:41.069Z,8.57
2023-03-11T01:04:26.437Z,8.05
2023-03-11T01:07:11.652Z,8.25
2023-03-11T01:09:56.983Z,7.78
2023-03-11T01:12:43.251Z,8.13
2023-03-11T01:15:34.718Z,8.02
2023-03-11T01:18:20.712Z,8.43
2023-03-11T01:21:06.104Z,7.97
2023-03-11T01:23:51.432Z,8.35
2023-03-11T01:26:36.732Z,8.10
2023-03-11T01:29:22.013Z,8.98
2023-03-11T01:32:07.367Z,11.05
2023-03-11T01:34:52.544Z,9.98
2023-03-11T01:37:37.706Z,9.38
2023-03-11T01:40:31.174Z,9.90
2023-03-11T01:43:39.079Z,9.52
2023-03-11T01:46:26.822Z,9.40
2023-03-11T01:49:12.935Z,9.40
2023-03-11T01:52:03.764Z,10.82
2023-03-11T01:54:51.408Z,10.85
2023-03-11T01:57:40.274Z,10.07
2023-03-11T02:00:25.508Z,11.32
2023-03-11T02:03:36.364Z,10.80
2023-03-11T02:06:23.822Z,9.45
2023-03-11T02:09:08.953Z,9.13
2023-03-11T02:11:54.480Z,9.15
2023-03-11T02:14:46.868Z,10.18
2023-03-11T02:17:32.807Z,9.52
2023-03-11T02:20:24.209Z,9.52
2023-03-11T02:23:10.073Z,8.70
2023-03-11T02:26:25.800Z,8.95
2023-03-11T02:29:12.106Z,9.25
2023-03-11T02:31:59.732Z,8.57
2023-03-11T02:34:45.444Z,7.82
2023-03-11T02:37:30.252Z,6.90
2023-03-11T02:40:24.894Z,7.78
2023-03-11T02:43:14.536Z,6.88
2023-03-11T02:46:00.301Z,6.55
2023-03-11T02:48:47.462Z,5.75
2023-03-11T02:51:32.846Z,5.75
2023-03-11T02:54:18.169Z,5.70
2023-03-11T02:57:03.702Z,5.53
2023-03-11T02:59:48.997Z,5.93
2023-03-11T03:02:34.415Z,6.80
2023-03-11T03:05:21.572Z,7.88
2023-03-11T03:08:07.025Z,7.43
2023-03-11T03:10:52.373Z,7.90
2023-03-11T03:13:37.341Z,7.85
2023-03-11T03:16:22.812Z,8.57
2023-03-11T03:19:07.889Z,8.60
2023-03-11T03:21:53.069Z,9.60
2023-03-11T03:24:38.309Z,8.98
2023-03-11T03:27:23.536Z,8.13
2023-03-11T03:30:10.526Z,8.82
2023-03-11T03:32:56.152Z,9.00
2023-03-11T03:35:43.924Z,9.80
2023-03-11T03:38:29.149Z,10.20
2023-03-11T03:41:15.796Z,10.07
2023-03-11T03:44:01.118Z,9.80
2023-03-11T03:46:46.269Z,9.60
2023-03-11T03:49:31.481Z,9.25
2023-03-11T03:52:16.731Z,9.85
2023-03-11T03:55:02.526Z,9.52
2023-03-11T03:57:47.575Z,8.65
2023-03-11T04:00:32.796Z,9.05
2023-03-11T04:03:18.153Z,8.55
2023-03-11T04:06:25.547Z,8.07
2023-03-11T04:09:11.831Z,7.60
2023-03-11T04:11:56.903Z,9.10
2023-03-11T04:14:42.364Z,8.90
2023-03-11T04:17:27.563Z,8.30
2023-03-11T04:20:12.895Z,9.82
2023-03-11T04:22:58.017Z,8.65
2023-03-11T04:25:43.191Z,8.90
2023-03-11T04:28:28.479Z,8.95
2023-03-11T04:31:13.863Z,8.57
2023-03-11T04:33:59.148Z,8.30
2023-03-11T04:36:44.470Z,9.40
2023-03-11T04:39:29.803Z,8.90
2023-03-11T04:42:15.281Z,7.78
2023-03-11T04:45:00.513Z,8.60
2023-03-11T04:47:50.189Z,8.32
2023-03-11T04:50:35.287Z,8.57
2023-03-11T04:53:20.715Z,8.50
2023-03-11T04:56:06.164Z,9.00
2023-03-11T04:58:51.397Z,8.77
2023-03-11T05:01:36.966Z,8.70
2023-03-11T05:04:22.244Z,9.07
2023-03-11T05:07:07.374Z,10.10
2023-03-11T05:09:52.379Z,9.65
2023-03-11T05:12:37.633Z,8.60
2023-03-11T05:15:22.937Z,7.45
2023-03-11T05:18:08.276Z,8.63
2023-03-11T05:20:53.512Z,8.50
2023-03-11T05:23:38.835Z,8.13
2023-03-11T05:26:24.039Z,9.48
2023-03-11T05:29:09.405Z,10.52
2023-03-11T05:31:54.760Z,9.85
2023-03-11T05:34:40.547Z,9.48
2023-03-11T05:37:25.580Z,9.38
2023-03-11T05:40:12.210Z,9.05
2023-03-11T05:42:57.195Z,8.57
2023-03-11T05:45:42.464Z,8.70
2023-03-11T05:48:27.549Z,9.35
2023-03-11T05:51:13.879Z,9.35
2023-03-11T05:53:58.984Z,9.07
2023-03-11T05:56:45.605Z,9.18
2023-03-11T05:59:32.439Z,9.52
2023-03-11T06:02:17.817Z,9.13
2023-03-11T06:05:03.293Z,10.00
2023-03-11T06:07:48.529Z,9.43
2023-03-11T06:10:33.574Z,10.23
2023-03-11T06:13:18.628Z,10.13
2023-03-11T06:16:05.059Z,10.25
2023-03-11T06:18:50.928Z,10.40
2023-03-11T06:21:36.253Z,10.38
2023-03-11T06:24:21.339Z,9.70
2023-03-11T06:27:06.535Z,10.65
2023-03-11T06:29:53.799Z,8.98
2023-03-11T06:32:39.211Z,7.55
2023-03-11T06:35:24.670Z,7.95
2023-03-11T06:38:09.951Z,7.90
2023-03-11T06:40:59.733Z,7.55
2023-03-11T06:43:44.866Z,8.30
2023-03-11T06:46:30.645Z,8.20
2023-03-11T06:49:15.642Z,8.10
2023-03-11T06:52:01.045Z,8.50
2023-03-11T06:54:46.622Z,7.57
2023-03-11T06:57:32.922Z,8.05
2023-03-11T07:00:18.558Z,8.80
2023-03-11T07:03:03.650Z,9.23
2023-03-11T07:05:51.021Z,7.45
2023-03-11T07:08:36.266Z,8.02
2023-03-11T07:11:24.027Z,9.25
2023-03-11T07:14:09.370Z,8.27
2023-03-11T07:16:54.686Z,8.90
2023-03-11T07:19:41.036Z,8.90
2023-03-11T07:22:26.502Z,8.68
2023-03-11T07:25:11.819Z,8.57
2023-03-11T07:27:57.068Z,8.75
2023-03-11T07:30:44.422Z,8.23
2023-03-11T07:33:29.690Z,7.57
2023-03-11T07:36:19.944Z,9.15
2023-03-11T07:39:06.128Z,7.97
2023-03-11T07:41:51.360Z,7.43
2023-03-11T07:44:36.857Z,7.55
2023-03-11T07:47:22.174Z,8.20
2023-03-11T07:50:07.804Z,8.13
2023-03-11T07:52:52.935Z,8.27
2023-03-11T07:55:38.181Z,8.48
2023-03-11T07:58:24.262Z,7.63
2023-03-11T08:01:13.105Z,7.57
2023-03-11T08:03:59.238Z,8.40
2023-03-11T08:06:46.969Z,8.25
2023-03-11T08:09:31.947Z,8.90
2023-03-11T08:12:17.444Z,8.55
2023-03-11T08:15:02.704Z,8.38
2023-03-11T08:17:47.982Z,8.15
2023-03-11T08:20:33.125Z,8.32
2023-03-11T08:23:19.822Z,9.32
2023-03-11T08:26:06.355Z,9.70
2023-03-11T08:28:51.421Z,9.48
2023-03-11T08:31:36.793Z,9.48
2023-03-11T08:34:22.426Z,8.75
2023-03-11T08:37:08.087Z,9.23
2023-03-11T08:39:53.604Z,9.68
2023-03-11T08:42:38.937Z,9.32
2023-03-11T08:45:24.116Z,8.18
2023-03-11T08:48:10.946Z,9.43
2023-03-11T08:50:56.480Z,8.13
2023-03-11T08:53:41.462Z,8.60
2023-03-11T08:56:27.157Z,8.90
2023-03-11T08:59:12.491Z,8.07
2023-03-11T09:01:57.651Z,7.65
2023-03-11T09:04:42.815Z,8.15
2023-03-11T09:07:28.129Z,8.35
2023-03-11T09:10:15.856Z,7.22
2023-03-11T09:13:01.179Z,8.45
2023-03-11T09:15:48.968Z,9.25
2023-03-11T09:18:34.517Z,7.78
2023-03-11T09:21:19.938Z,7.70
2023-03-11T09:24:05.920Z,8.60
2023-03-11T09:26:51.063Z,7.18
2023-03-11T09:29:36.189Z,6.80
2023-03-11T09:32:21.503Z,8.15
2023-03-11T09:35:06.903Z,7.88
2023-03-11T09:37:52.215Z,7.93
2023-03-11T09:41:25.601Z,7.18
2023-03-11T09:44:44.196Z,6.35
2023-03-11T09:48:07.822Z,6.35
2023-03-11T09:50:59.180Z,7.10
2023-03-11T09:53:46.434Z,7.07
2023-03-11T09:56:35.212Z,7.28
2023-03-11T09:59:33.470Z,7.18
2023-03-11T10:02:22.864Z,6.55
2023-03-11T10:05:22.032Z,7.57
2023-03-11T10:08:34.210Z,7.25
2023-03-11T10:11:38.505Z,7.47
2023-03-11T10:14:52.846Z,7.13
2023-03-11T10:17:46.735Z,6.72
2023-03-11T10:21:04.111Z,6.00
2023-03-11T10:24:03.954Z,5.97
2023-03-11T10:30:04.741Z,6.18
2023-03-11T10:33:32.858Z,5.28
2023-03-11T10:36:24.318Z,5.70
2023-03-11T10:39:11.404Z,4.47
2023-03-11T10:42:03.339Z,4.50
2023-03-11T10:44:48.389Z,2.25
2023-03-11T10:47:33.288Z,1.10
2023-03-11T10:50:19.990Z,2.10
2023-03-11T10:53:17.647Z,1.60
2023-03-11T10:56:03.095Z,1.90
2023-03-11T10:58:49.948Z,1.52
2023-03-11T11:01:35.191Z,1.30
2023-03-11T11:04:34.827Z,1.00
2023-03-11T11:07:41.316Z,1.13
2023-03-11T11:10:34.630Z,1.40
2023-03-11T11:13:22.115Z,1.42
2023-03-11T11:16:16.685Z,1.23
2023-03-11T11:19:09.526Z,1.35
2023-03-11T11:21:54.710Z,2.58
2023-03-11T11:24:44.417Z,1.23
2023-03-11T11:27:30.897Z,1.08
2023-03-11T11:30:18.158Z,1.30
2023-03-11T11:33:23.269Z,1.27
2023-03-11T11:36:15.254Z,1.63
2023-03-11T11:39:05.027Z,1.13
2023-03-11T11:41:50.698Z,1.35
2023-03-11T11:44:36.189Z,1.40
2023-03-11T11:47:29.798Z,1.20
2023-03-11T11:50:23.753Z,1.30
2023-03-11T11:53:33.383Z,1.35
2023-03-11T11:56:18.558Z,1.40
2023-03-11T11:59:13.931Z,1.20
2023-03-11T12:02:01.992Z,1.15
2023-03-11T12:04:50.140Z,1.08
2023-03-11T12:08:06.698Z,1.10
2023-03-11T12:11:01.390Z,1.42
2023-03-11T12:14:24.253Z,1.00
2023-03-11T12:17:12.766Z,1.02
2023-03-11T12:20:12.403Z,0.77
2023-03-11T12:22:57.318Z,1.48
2023-03-11T12:26:04.186Z,1.13
2023-03-11T12:28:56.593Z,1.15
2023-03-11T12:31:42.694Z,0.75
2023-03-11T12:34:29.981Z,0.65
2023-03-11T12:37:18.421Z,0.63
2023-03-11T12:40:41.233Z,0.65
2023-03-11T12:43:35.319Z,0.80
2023-03-11T12:46:20.381Z,0.60
2023-03-11T12:49:12.785Z,0.98
2023-03-11T12:52:05.524Z,0.52
2023-03-11T12:54:56.773Z,0.82
2023-03-11T12:57:55.731Z,0.95
2023-03-11T13:00:49.816Z,0.60
2023-03-11T13:03:46.125Z,2.92
2023-03-11T13:07:03.390Z,0.90
2023-03-11T13:10:03.946Z,0.75
2023-03-11T13:12:51.775Z,0.63
2023-03-11T13:15:37.873Z,0.95
2023-03-11T13:18:24.805Z,0.70
2023-03-11T13:21:37.564Z,0.75
2023-03-11T13:24:22.554Z,0.70
2023-03-11T13:27:32.731Z,0.70
2023-03-11T13:30:28.661Z,0.73
2023-03-11T13:33:18.487Z,0.95
2023-03-11T13:36:19.492Z,0.73
2023-03-11T13:39:25.957Z,0.98
2023-03-11T13:42:26.111Z,1.13
2023-03-11T13:45:38.067Z,0.80
2023-03-11T13:48:35.507Z,0.95
2023-03-11T13:51:37.928Z,0.90
2023-03-11T13:54:45.564Z,0.90
2023-03-11T13:57:32.696Z,1.05
2023-03-11T14:00:24.103Z,1.05
2023-03-11T14:03:13.437Z,0.75
2023-03-11T14:06:02.752Z,0.90
2023-03-11T14:08:56.227Z,1.02
2023-03-11T14:11:47.625Z,0.80
2023-03-11T14:14:33.883Z,0.75
2023-03-11T14:17:20.345Z,0.70
2023-03-11T14:20:17.458Z,0.90
2023-03-11T14:23:02.848Z,0.60
2023-03-11T14:25:48.411Z,0.80
2023-03-11T14:28:38.743Z,0.80
2023-03-11T14:31:40.553Z,1.20
2023-03-11T14:34:28.833Z,1.02
2023-03-11T14:37:26.278Z,0.95
2023-03-11T14:40:32.463Z,0.70
2023-03-11T14:43:20.797Z,0.50
2023-03-11T14:46:07.418Z,1.00
2023-03-11T14:48:54.731Z,1.10
2023-03-11T14:51:40.234Z,0.98
2023-03-11T14:54:30.331Z,0.70
2023-03-11T15:00:18.583Z,0.93
2023-03-11T15:03:15.001Z,0.77
2023-03-11T15:06:12.068Z,0.90
2023-03-11T15:09:01.686Z,1.00
2023-03-11T15:11:55.141Z,0.98
2023-03-11T15:14:51.055Z,1.00
2023-03-11T15:17:42.769Z,0.90
2023-03-11T15:20:35.893Z,1.33
2023-03-11T15:23:22.787Z,1.15
2023-03-11T15:26:28.572Z,1.10
2023-03-11T15:29:16.868Z,0.90
2023-03-11T15:32:25.237Z,0.70
2023-03-11T15:35:13.190Z,0.95
2023-03-11T15:38:23.654Z,1.08
2023-03-11T15:41:09.967Z,1.83
2023-03-11T15:43:55.315Z,1.52
2023-03-11T15:46:40.550Z,2.10
2023-03-11T15:49:25.741Z,1.88
2023-03-11T15:52:11.630Z,2.30
2023-03-11T15:54:56.644Z,1.33
2023-03-11T15:57:42.025Z,1.48
2023-03-11T16:00:27.220Z,1.25
2023-03-11T16:03:12.484Z,1.10
2023-03-11T16:05:57.705Z,1.27
2023-03-11T16:08:44.905Z,1.85
2023-03-11T16:11:32.735Z,1.00
2023-03-11T16:14:20.309Z,1.58
2023-03-11T16:17:05.695Z,1.17
2023-03-11T16:19:50.953Z,1.10
2023-03-11T16:22:37.906Z,9.30
2023-03-11T16:25:29.361Z,1.38
2023-03-11T16:28:16.353Z,1.15
2023-03-11T16:31:01.419Z,1.42
2023-03-11T16:33:46.708Z,1.85
2023-03-11T16:36:31.945Z,1.17
2023-03-11T16:39:17.313Z,2.10
2023-03-11T16:42:02.762Z,2.58
2023-03-11T16:44:47.941Z,2.10
2023-03-11T16:47:32.982Z,1.20
2023-03-11T16:50:18.424Z,1.10
2023-03-11T16:53:03.708Z,1.10
2023-03-11T16:55:48.801Z,1.20
2023-03-11T16:58:33.850Z,1.38
2023-03-11T17:01:21.646Z,1.15
2023-03-11T17:04:07.871Z,1.02
2023-03-11T17:06:52.959Z,1.33
2023-03-11T17:09:38.334Z,1.00
2023-03-11T17:12:25.051Z,1.58
2023-03-11T17:15:10.344Z,1.67
2023-03-11T17:17:55.361Z,1.80
2023-03-11T17:20:43.553Z,1.55
2023-03-11T17:23:29.194Z,1.67
2023-03-11T17:26:16.417Z,1.65
2023-03-11T17:29:01.712Z,2.00
2023-03-11T17:31:47.206Z,2.08
2023-03-11T17:34:32.460Z,2.05
2023-03-11T17:37:18.785Z,2.47
2023-03-11T17:40:04.356Z,2.05
2023-03-11T17:42:49.590Z,2.10
2023-03-11T17:45:36.966Z,1.80
2023-03-11T17:48:22.123Z,2.92
2023-03-11T17:51:10.256Z,3.67
2023-03-11T17:53:56.060Z,3.30
2023-03-11T17:56:41.053Z,3.60
2023-03-11T17:59:26.426Z,3.00
2023-03-11T18:02:14.337Z,3.35
2023-03-11T18:04:59.564Z,2.70
2023-03-11T18:07:44.686Z,2.97
2023-03-11T18:10:29.825Z,3.08
2023-03-11T18:13:15.302Z,2.95
2023-03-11T18:16:05.138Z,2.90
2023-03-11T18:18:50.437Z,2.67
2023-03-11T18:21:35.672Z,3.20
2023-03-11T18:24:20.610Z,2.97
2023-03-11T18:27:05.801Z,3.47
2023-03-11T18:29:51.479Z,3.20
2023-03-11T18:32:36.378Z,3.10
2023-03-11T18:35:22.358Z,3.10
2023-03-11T18:38:07.254Z,4.47
2023-03-11T18:40:58.749Z,5.32
2023-03-11T18:43:44.421Z,5.90
2023-03-11T18:46:31.760Z,7.70
2023-03-11T18:49:17.169Z,5.70
2023-03-11T18:52:02.388Z,4.75
2023-03-11T18:54:47.711Z,3.58
2023-03-11T18:57:33.062Z,3.15
2023-03-11T19:00:22.411Z,3.92
2023-03-11T19:03:11.171Z,3.70
2023-03-11T19:05:56.362Z,4.07
2023-03-11T19:08:41.413Z,4.20
2023-03-11T19:11:26.956Z,4.65
2023-03-11T19:14:12.443Z,5.32
2023-03-11T19:16:57.916Z,5.53
2023-03-11T19:19:43.022Z,4.43
2023-03-11T19:22:28.291Z,5.00
2023-03-11T19:25:13.191Z,5.35
2023-03-11T19:27:58.251Z,5.18
2023-03-11T19:30:43.870Z,5.20
2023-03-11T19:33:29.220Z,5.43
2023-03-11T19:36:14.257Z,3.85
2023-03-11T19:38:59.842Z,5.18
2023-03-11T19:41:45.267Z,5.22
2023-03-11T19:44:30.467Z,6.15
2023-03-11T19:47:15.831Z,5.22
2023-03-11T19:50:00.653Z,5.47
2023-03-11T19:52:45.924Z,5.30
2023-03-11T19:55:31.026Z,5.20
2023-03-11T19:58:16.230Z,5.10
2023-03-11T20:01:02.164Z,4.60
2023-03-11T20:03:47.559Z,4.95
2023-03-11T20:06:32.478Z,5.03
2023-03-11T20:09:18.237Z,5.40
2023-03-11T20:12:03.805Z,5.25
2023-03-11T20:14:48.857Z,5.50
2023-03-11T20:17:33.904Z,6.05
2023-03-11T20:20:19.770Z,6.30
2023-03-11T20:23:05.310Z,6.35
2023-03-11T20:25:50.271Z,5.60
2023-03-11T20:28:35.520Z,6.32
2023-03-11T20:31:22.688Z,6.50
2023-03-11T20:34:09.587Z,6.00
2023-03-11T20:36:54.716Z,6.07
2023-03-11T20:39:39.926Z,6.50
2023-03-11T20:42:25.227Z,7.30
2023-03-11T20:45:11.139Z,6.15
2023-03-11T20:47:57.185Z,6.28
2023-03-11T20:50:42.390Z,6.32
2023-03-11T20:53:28.447Z,7.03
2023-03-11T20:56:16.855Z,8.13
2023-03-11T20:59:01.889Z,7.35
2023-03-11T21:01:49.244Z,7.72
2023-03-11T21:04:35.568Z,7.82
2023-03-11T21:07:21.613Z,7.25
2023-03-11T21:10:12.813Z,7.60
2023-03-11T21:12:57.724Z,8.13
2023-03-11T21:15:42.858Z,8.68
2023-03-11T21:18:28.096Z,8.88
2023-03-11T21:21:15.572Z,8.52
2023-03-11T21:24:00.899Z,8.35
2023-03-11T21:26:46.257Z,7.15
2023-03-11T21:29:31.956Z,9.07
2023-03-11T21:32:17.336Z,8.90
2023-03-11T21:35:03.959Z,9.18
2023-03-11T21:37:50.341Z,9.48
2023-03-11T21:40:35.427Z,9.73
2023-03-11T21:43:21.149Z,10.70
2023-03-11T21:46:07.054Z,11.20
2023-03-11T21:48:52.733Z,10.80
2023-03-11T21:51:38.171Z,11.23
2023-03-11T21:54:23.419Z,11.77
2023-03-11T21:57:08.798Z,11.38
2023-03-11T21:59:54.096Z,11.10
2023-03-11T22:02:39.700Z,11.30
2023-03-11T22:05:25.637Z,12.18
2023-03-11T22:08:11.459Z,12.32
2023-03-11T22:10:57.102Z,12.80
2023-03-11T22:13:42.269Z,11.70
2023-03-11T22:16:28.035Z,13.00
2023-03-11T22:19:13.714Z,13.32
2023-03-11T22:21:58.925Z,13.15
2023-03-11T22:24:44.442Z,13.70
2023-03-11T22:27:29.499Z,13.73
2023-03-11T22:30:15.028Z,13.82
2023-03-11T22:33:00.324Z,12.73
2023-03-11T22:35:54.405Z,14.70
2023-03-11T22:38:42.317Z,15.60
2023-03-11T22:41:27.544Z,17.10
2023-03-11T22:44:13.095Z,14.63
2023-03-11T22:46:58.143Z,16.17
2023-03-11T22:49:43.186Z,22.90
2023-03-11T22:52:28.598Z,22.67
2023-03-11T22:55:13.899Z,17.88
2023-03-11T22:57:59.154Z,16.27
2023-03-11T23:00:44.653Z,16.70
2023-03-11T23:03:31.201Z,14.52
2023-03-11T23:06:18.842Z,15.65
2023-03-11T23:09:04.993Z,23.05
2023-03-11T23:11:52.253Z,19.85
2023-03-11T23:14:44.954Z,20.48
2023-03-11T23:17:30.664Z,18.48
2023-03-11T23:20:17.305Z,25.20
2023-03-11T23:23:03.076Z,18.73
2023-03-11T23:25:48.011Z,19.10
2023-03-11T23:28:33.457Z,17.98
2023-03-11T23:31:20.356Z,16.13
2023-03-11T23:34:06.609Z,16.25
2023-03-11T23:36:51.909Z,14.55
2023-03-11T23:39:37.048Z,15.60
2023-03-11T23:42:25.904Z,15.95
2023-03-11T23:45:11.353Z,15.87
2023-03-11T23:47:56.514Z,14.10
2023-03-11T23:50:49.826Z,12.52
2023-03-11T23:53:37.835Z,13.60
2023-03-11T23:56:22.895Z,12.45
2023-03-11T23:59:08.169Z,12.90
